sensor_id;sensor_type;location;lat;lon;timestamp;temperature;humidity
15288;DHT22;7745;48.708;9.026;2023-03-01T00:02:29;-1.00;99.90
15288;DHT22;7745;48.708;9.026;2023-03-01T00:09:05;-1.00;99.90
15288;DHT22;7745;48.708;9.026;2023-03-01T00:11:26;-0.90;99.90
15288;DHT22;7745;48.708;9.026;2023-03-01T00:14:08;-0.60;99.90
15288;DHT22;7745;48.708;9.026;2023-03-01T00:16:50;-0.90;99.90
15288;DHT22;7745;48.708;9.026;2023-03-01T00:19:32;-1.00;99.90
15288;DHT22;7745;48.708;9.026;2023-03-01T00:22:19;-0.80;99.90
15288;DHT22;7745;48.708;9.026;2023-03-01T00:25:32;-1.30;99.90
15288;DHT22;7745;48.708;9.026;2023-03-01T00:34:35;-1.10;99.90
15288;DHT22;7745;48.708;9.026;2023-03-01T00:37:09;-1.40;99.90
15288;DHT22;7745;48.708;9.026;2023-03-01T00:39:52;-1.40;99.90
15288;DHT22;7745;48.708;9.026;2023-03-01T00:45:46;-1.90;99.90
15288;DHT22;7745;48.708;9.026;2023-03-01T00:48:30;-1.60;99.90
15288;DHT22;7745;48.708;9.026;2023-03-01T00:51:14;-1.80;99.90
15288;DHT22;7745;48.708;9.026;2023-03-01T00:53:46;-1.60;99.90
15288;DHT22;7745;48.708;9.026;2023-03-01T00:59:09;-1.10;99.90
15288;DHT22;7745;48.708;9.026;2023-03-01T01:01:43;-1.40;99.90
15288;DHT22;7745;48.708;9.026;2023-03-01T01:04:19;-1.40;99.90
15288;DHT22;7745;48.708;9.026;2023-03-01T01:06:59;-1.60;99.90
15288;DHT22;7745;48.708;9.026;2023-03-01T01:09:33;-1.90;99.90
15288;DHT22;7745;48.708;9.026;2023-03-01T01:12:12;-1.70;99.90
15288;DHT22;7745;48.708;9.026;2023-03-01T01:14:48;-1.20;99.90
15288;DHT22;7745;48.708;9.026;2023-03-01T01:17:23;-1.40;99.90
15288;DHT22;7745;48.708;9.026;2023-03-01T01:19:51;-1.80;99.90
15288;DHT22;7745;48.708;9.026;2023-03-01T01:22:30;-1.50;99.90
15288;DHT22;7745;48.708;9.026;2023-03-01T01:25:14;-1.70;99.90
15288;DHT22;7745;48.708;9.026;2023-03-01T01:27:44;-1.20;99.90
15288;DHT22;7745;48.708;9.026;2023-03-01T01:30:18;-1.60;99.90
15288;DHT22;7745;48.708;9.026;2023-03-01T01:32:55;-1.90;99.90
15288;DHT22;7745;48.708;9.026;2023-03-01T01:35:33;-1.30;99.90
15288;DHT22;7745;48.708;9.026;2023-03-01T01:38:07;-1.20;99.90
15288;DHT22;7745;48.708;9.026;2023-03-01T01:40:48;-1.60;99.90
15288;DHT22;7745;48.708;9.026;2023-03-01T01:43:31;-1.60;99.90
15288;DHT22;7745;48.708;9.026;2023-03-01T01:46:25;-1.70;99.90
15288;DHT22;7745;48.708;9.026;2023-03-01T01:49:09;-1.60;99.90
15288;DHT22;7745;48.708;9.026;2023-03-01T01:51:53;-1.20;99.90
15288;DHT22;7745;48.708;9.026;2023-03-01T01:54:44;-1.40;99.90
15288;DHT22;7745;48.708;9.026;2023-03-01T01:57:39;-1.60;99.90
15288;DHT22;7745;48.708;9.026;2023-03-01T02:00:18;-1.90;99.90
15288;DHT22;7745;48.708;9.026;2023-03-01T02:02:56;-2.10;99.90
15288;DHT22;7745;48.708;9.026;2023-03-01T02:05:37;-1.60;99.90
15288;DHT22;7745;48.708;9.026;2023-03-01T02:08:20;-1.90;99.90
15288;DHT22;7745;48.708;9.026;2023-03-01T02:10:56;-1.70;99.90
15288;DHT22;7745;48.708;9.026;2023-03-01T02:16:20;-2.20;99.90
15288;DHT22;7745;48.708;9.026;2023-03-01T02:18:56;-1.40;99.90
15288;DHT22;7745;48.708;9.026;2023-03-01T02:21:45;-1.70;99.90
15288;DHT22;7745;48.708;9.026;2023-03-01T02:24:26;-1.60;99.90
15288;DHT22;7745;48.708;9.026;2023-03-01T02:27:00;-1.50;99.90
15288;DHT22;7745;48.708;9.026;2023-03-01T02:29:40;-0.80;99.90
15288;DHT22;7745;48.708;9.026;2023-03-01T02:32:18;-1.40;99.90
15288;DHT22;7745;48.708;9.026;2023-03-01T02:34:58;-1.50;99.90
15288;DHT22;7745;48.708;9.026;2023-03-01T02:37:38;-1.30;99.90
15288;DHT22;7745;48.708;9.026;2023-03-01T02:40:22;-1.30;99.90
15288;DHT22;7745;48.708;9.026;2023-03-01T02:42:54;-1.30;99.90
15288;DHT22;7745;48.708;9.026;2023-03-01T02:45:28;-0.90;99.90
15288;DHT22;7745;48.708;9.026;2023-03-01T02:48:03;-1.20;99.90
15288;DHT22;7745;48.708;9.026;2023-03-01T02:50:47;-0.80;99.90
15288;DHT22;7745;48.708;9.026;2023-03-01T02:53:39;-0.90;99.90
15288;DHT22;7745;48.708;9.026;2023-03-01T02:59:16;-0.90;99.90
15288;DHT22;7745;48.708;9.026;2023-03-01T03:08:20;-1.20;99.90
15288;DHT22;7745;48.708;9.026;2023-03-01T03:11:02;-1.10;99.90
15288;DHT22;7745;48.708;9.026;2023-03-01T03:14:10;-1.00;99.90
15288;DHT22;7745;48.708;9.026;2023-03-01T03:16:50;-0.90;99.90
15288;DHT22;7745;48.708;9.026;2023-03-01T03:19:46;-0.70;99.90
15288;DHT22;7745;48.708;9.026;2023-03-01T03:22:26;-1.00;99.90
15288;DHT22;7745;48.708;9.026;2023-03-01T03:25:06;-1.00;99.90
15288;DHT22;7745;48.708;9.026;2023-03-01T03:27:50;-1.00;99.90
15288;DHT22;7745;48.708;9.026;2023-03-01T03:30:40;-1.00;99.90
15288;DHT22;7745;48.708;9.026;2023-03-01T03:33:23;-1.10;99.90
15288;DHT22;7745;48.708;9.026;2023-03-01T03:38:45;-0.70;99.90
15288;DHT22;7745;48.708;9.026;2023-03-01T03:42:04;-1.30;99.90
15288;DHT22;7745;48.708;9.026;2023-03-01T03:45:08;-0.90;99.90
15288;DHT22;7745;48.708;9.026;2023-03-01T03:47:59;-1.00;99.90
15288;DHT22;7745;48.708;9.026;2023-03-01T03:54:07;-0.90;99.90
15288;DHT22;7745;48.708;9.026;2023-03-01T03:56:50;-0.90;99.90
15288;DHT22;7745;48.708;9.026;2023-03-01T04:03:15;-0.80;99.90
15288;DHT22;7745;48.708;9.026;2023-03-01T04:06:04;-0.90;99.90
15288;DHT22;7745;48.708;9.026;2023-03-01T04:12:06;-0.90;99.90
15288;DHT22;7745;48.708;9.026;2023-03-01T04:14:57;-0.90;99.90
15288;DHT22;7745;48.708;9.026;2023-03-01T04:17:50;-1.30;99.90
15288;DHT22;7745;48.708;9.026;2023-03-01T04:20:57;-0.80;99.90
15288;DHT22;7745;48.708;9.026;2023-03-01T04:23:48;-0.80;99.90
15288;DHT22;7745;48.708;9.026;2023-03-01T04:29:49;-0.80;99.90
15288;DHT22;7745;48.708;9.026;2023-03-01T04:32:30;-0.80;99.90
15288;DHT22;7745;48.708;9.026;2023-03-01T04:35:51;-0.60;99.90
15288;DHT22;7745;48.708;9.026;2023-03-01T04:38:45;-0.80;99.90
15288;DHT22;7745;48.708;9.026;2023-03-01T04:45:19;-1.00;99.90
15288;DHT22;7745;48.708;9.026;2023-03-01T04:48:23;-1.00;99.90
15288;DHT22;7745;48.708;9.026;2023-03-01T04:51:09;-0.80;99.90
15288;DHT22;7745;48.708;9.026;2023-03-01T04:53:55;-1.00;99.90
15288;DHT22;7745;48.708;9.026;2023-03-01T04:56:43;-0.60;99.90
15288;DHT22;7745;48.708;9.026;2023-03-01T04:59:47;-1.10;99.90
15288;DHT22;7745;48.708;9.026;2023-03-01T05:16:05;-0.70;99.90
15288;DHT22;7745;48.708;9.026;2023-03-01T05:19:04;-0.50;99.90
15288;DHT22;7745;48.708;9.026;2023-03-01T05:21:52;-0.20;99.90
15288;DHT22;7745;48.708;9.026;2023-03-01T05:28:11;-0.80;99.90
15288;DHT22;7745;48.708;9.026;2023-03-01T05:31:09;-0.80;99.90
15288;DHT22;7745;48.708;9.026;2023-03-01T05:34:08;-0.60;99.90
15288;DHT22;7745;48.708;9.026;2023-03-01T05:37:05;-0.40;99.90
15288;DHT22;7745;48.708;9.026;2023-03-01T05:39:49;-0.30;99.90
15288;DHT22;7745;48.708;9.026;2023-03-01T05:52:58;-0.60;99.90
15288;DHT22;7745;48.708;9.026;2023-03-01T05:56:03;-0.50;99.90
15288;DHT22;7745;48.708;9.026;2023-03-01T06:02:31;-0.40;99.90
15288;DHT22;7745;48.708;9.026;2023-03-01T06:12:05;-0.50;99.90
15288;DHT22;7745;48.708;9.026;2023-03-01T06:15:14;-0.90;99.90
15288;DHT22;7745;48.708;9.026;2023-03-01T06:18:06;-0.30;99.90
15288;DHT22;7745;48.708;9.026;2023-03-01T06:24:17;-0.20;99.90
15288;DHT22;7745;48.708;9.026;2023-03-01T06:33:41;-0.30;99.90
15288;DHT22;7745;48.708;9.026;2023-03-01T06:36:10;-0.30;99.90
15288;DHT22;7745;48.708;9.026;2023-03-01T06:38:37;-0.20;99.90
15288;DHT22;7745;48.708;9.026;2023-03-01T06:41:06;-0.20;99.90
15288;DHT22;7745;48.708;9.026;2023-03-01T06:43:33;-0.20;99.90
15288;DHT22;7745;48.708;9.026;2023-03-01T06:46:02;0.40;99.90
15288;DHT22;7745;48.708;9.026;2023-03-01T06:48:30;-0.10;99.90
15288;DHT22;7745;48.708;9.026;2023-03-01T06:50:59;-0.10;99.90
15288;DHT22;7745;48.708;9.026;2023-03-01T06:53:27;-0.10;99.90
15288;DHT22;7745;48.708;9.026;2023-03-01T06:55:54;-0.10;99.90
15288;DHT22;7745;48.708;9.026;2023-03-01T06:58:21;-0.10;99.90
15288;DHT22;7745;48.708;9.026;2023-03-01T07:00:48;-0.10;99.90
15288;DHT22;7745;48.708;9.026;2023-03-01T07:03:15;-0.10;99.90
15288;DHT22;7745;48.708;9.026;2023-03-01T07:05:42;-0.10;99.90
15288;DHT22;7745;48.708;9.026;2023-03-01T07:08:11;-0.10;99.90
15288;DHT22;7745;48.708;9.026;2023-03-01T07:10:38;0.00;99.90
15288;DHT22;7745;48.708;9.026;2023-03-01T07:13:04;0.00;99.90
15288;DHT22;7745;48.708;9.026;2023-03-01T07:15:32;0.10;99.90
15288;DHT22;7745;48.708;9.026;2023-03-01T07:17:59;0.20;99.90
15288;DHT22;7745;48.708;9.026;2023-03-01T07:20:26;0.10;99.90
15288;DHT22;7745;48.708;9.026;2023-03-01T07:22:53;0.10;99.90
15288;DHT22;7745;48.708;9.026;2023-03-01T07:25:22;0.00;99.90
15288;DHT22;7745;48.708;9.026;2023-03-01T07:27:49;0.00;99.90
15288;DHT22;7745;48.708;9.026;2023-03-01T07:30:18;-0.10;99.90
15288;DHT22;7745;48.708;9.026;2023-03-01T07:32:45;-0.10;99.90
15288;DHT22;7745;48.708;9.026;2023-03-01T07:35:12;0.00;99.90
15288;DHT22;7745;48.708;9.026;2023-03-01T07:37:40;0.00;99.90
15288;DHT22;7745;48.708;9.026;2023-03-01T07:40:08;0.00;99.90
15288;DHT22;7745;48.708;9.026;2023-03-01T07:42:36;0.10;99.90
15288;DHT22;7745;48.708;9.026;2023-03-01T07:45:04;0.60;99.90
15288;DHT22;7745;48.708;9.026;2023-03-01T07:47:32;0.10;99.90
15288;DHT22;7745;48.708;9.026;2023-03-01T07:49:59;0.30;99.90
15288;DHT22;7745;48.708;9.026;2023-03-01T07:52:28;0.20;99.90
15288;DHT22;7745;48.708;9.026;2023-03-01T07:54:55;0.40;99.90
15288;DHT22;7745;48.708;9.026;2023-03-01T07:57:22;-0.10;99.90
15288;DHT22;7745;48.708;9.026;2023-03-01T07:59:57;0.20;99.90
15288;DHT22;7745;48.708;9.026;2023-03-01T08:02:26;0.30;99.90
15288;DHT22;7745;48.708;9.026;2023-03-01T08:05:20;0.30;99.90
15288;DHT22;7745;48.708;9.026;2023-03-01T08:11:36;-0.20;99.90
15288;DHT22;7745;48.708;9.026;2023-03-01T08:14:19;0.20;99.90
15288;DHT22;7745;48.708;9.026;2023-03-01T08:17:22;0.50;99.90
15288;DHT22;7745;48.708;9.026;2023-03-01T08:19:58;0.70;99.90
15288;DHT22;7745;48.708;9.026;2023-03-01T08:22:33;0.70;99.90
15288;DHT22;7745;48.708;9.026;2023-03-01T08:25:21;0.60;99.90
15288;DHT22;7745;48.708;9.026;2023-03-01T08:28:00;0.60;99.90
15288;DHT22;7745;48.708;9.026;2023-03-01T08:30:36;0.80;99.90
15288;DHT22;7745;48.708;9.026;2023-03-01T08:33:32;0.60;99.90
15288;DHT22;7745;48.708;9.026;2023-03-01T08:36:03;1.30;99.90
15288;DHT22;7745;48.708;9.026;2023-03-01T08:38:32;1.40;99.90
15288;DHT22;7745;48.708;9.026;2023-03-01T08:41:02;1.80;99.90
15288;DHT22;7745;48.708;9.026;2023-03-01T08:43:36;1.60;99.90
15288;DHT22;7745;48.708;9.026;2023-03-01T08:46:03;1.20;99.90
15288;DHT22;7745;48.708;9.026;2023-03-01T08:48:40;1.20;99.90
15288;DHT22;7745;48.708;9.026;2023-03-01T08:51:10;1.30;99.90
15288;DHT22;7745;48.708;9.026;2023-03-01T08:54:00;1.40;99.90
15288;DHT22;7745;48.708;9.026;2023-03-01T08:58:10;1.20;99.90
15288;DHT22;7745;48.708;9.026;2023-03-01T09:00:39;1.50;99.90
15288;DHT22;7745;48.708;9.026;2023-03-01T09:03:15;1.60;99.90
15288;DHT22;7745;48.708;9.026;2023-03-01T09:16:00;1.50;99.90
15288;DHT22;7745;48.708;9.026;2023-03-01T09:18:57;1.70;99.90
15288;DHT22;7745;48.708;9.026;2023-03-01T09:21:49;1.30;99.90
15288;DHT22;7745;48.708;9.026;2023-03-01T09:24:37;1.40;99.90
15288;DHT22;7745;48.708;9.026;2023-03-01T09:27:09;1.60;99.90
15288;DHT22;7745;48.708;9.026;2023-03-01T09:29:44;1.30;99.90
15288;DHT22;7745;48.708;9.026;2023-03-01T09:32:11;1.60;99.90
15288;DHT22;7745;48.708;9.026;2023-03-01T09:34:38;1.60;99.90
15288;DHT22;7745;48.708;9.026;2023-03-01T09:37:19;1.60;99.90
15288;DHT22;7745;48.708;9.026;2023-03-01T09:39:46;1.70;99.90
15288;DHT22;7745;48.708;9.026;2023-03-01T09:42:13;1.90;99.90
15288;DHT22;7745;48.708;9.026;2023-03-01T09:44:47;1.90;99.90
15288;DHT22;7745;48.708;9.026;2023-03-01T09:47:21;2.00;99.90
15288;DHT22;7745;48.708;9.026;2023-03-01T09:49:58;2.00;99.90
15288;DHT22;7745;48.708;9.026;2023-03-01T09:52:33;2.10;99.90
15288;DHT22;7745;48.708;9.026;2023-03-01T09:55:09;2.30;99.90
15288;DHT22;7745;48.708;9.026;2023-03-01T09:57:46;2.10;99.90
15288;DHT22;7745;48.708;9.026;2023-03-01T10:00:27;2.20;99.90
15288;DHT22;7745;48.708;9.026;2023-03-01T10:03:00;2.40;99.90
15288;DHT22;7745;48.708;9.026;2023-03-01T10:05:38;2.60;99.90
15288;DHT22;7745;48.708;9.026;2023-03-01T10:08:27;2.50;99.90
15288;DHT22;7745;48.708;9.026;2023-03-01T10:10:58;2.50;99.90
15288;DHT22;7745;48.708;9.026;2023-03-01T10:13:31;2.60;99.90
15288;DHT22;7745;48.708;9.026;2023-03-01T10:16:06;2.90;99.90
15288;DHT22;7745;48.708;9.026;2023-03-01T10:18:37;2.50;99.90
15288;DHT22;7745;48.708;9.026;2023-03-01T10:21:20;2.70;99.90
15288;DHT22;7745;48.708;9.026;2023-03-01T10:23:52;2.60;99.90
15288;DHT22;7745;48.708;9.026;2023-03-01T10:26:36;2.80;99.90
15288;DHT22;7745;48.708;9.026;2023-03-01T10:29:07;2.80;99.90
15288;DHT22;7745;48.708;9.026;2023-03-01T10:31:41;3.10;99.90
15288;DHT22;7745;48.708;9.026;2023-03-01T10:34:21;2.90;99.90
15288;DHT22;7745;48.708;9.026;2023-03-01T10:36:57;3.00;99.90
15288;DHT22;7745;48.708;9.026;2023-03-01T10:39:26;3.10;99.90
15288;DHT22;7745;48.708;9.026;2023-03-01T10:42:00;3.20;99.90
15288;DHT22;7745;48.708;9.026;2023-03-01T10:44:40;3.40;99.90
15288;DHT22;7745;48.708;9.026;2023-03-01T10:47:15;3.40;99.90
15288;DHT22;7745;48.708;9.026;2023-03-01T10:50:00;3.40;99.90
15288;DHT22;7745;48.708;9.026;2023-03-01T10:52:30;3.40;99.90
15288;DHT22;7745;48.708;9.026;2023-03-01T10:54:59;3.40;99.90
15288;DHT22;7745;48.708;9.026;2023-03-01T10:57:31;3.50;99.90
15288;DHT22;7745;48.708;9.026;2023-03-01T11:00:20;3.50;99.90
15288;DHT22;7745;48.708;9.026;2023-03-01T11:02:51;3.50;99.90
15288;DHT22;7745;48.708;9.026;2023-03-01T11:05:28;3.50;99.90
15288;DHT22;7745;48.708;9.026;2023-03-01T11:07:57;4.00;99.90
15288;DHT22;7745;48.708;9.026;2023-03-01T11:10:27;3.80;99.90
15288;DHT22;7745;48.708;9.026;2023-03-01T11:13:06;4.00;99.90
15288;DHT22;7745;48.708;9.026;2023-03-01T11:16:07;3.70;99.90
15288;DHT22;7745;48.708;9.026;2023-03-01T11:22:58;3.60;99.90
15288;DHT22;7745;48.708;9.026;2023-03-01T11:25:51;3.40;99.90
15288;DHT22;7745;48.708;9.026;2023-03-01T11:28:40;3.80;99.90
15288;DHT22;7745;48.708;9.026;2023-03-01T11:31:25;3.80;99.90
15288;DHT22;7745;48.708;9.026;2023-03-01T11:34:06;3.80;99.90
15288;DHT22;7745;48.708;9.026;2023-03-01T11:36:49;3.90;99.90
15288;DHT22;7745;48.708;9.026;2023-03-01T11:40:02;4.30;99.90
15288;DHT22;7745;48.708;9.026;2023-03-01T11:43:23;3.90;99.90
15288;DHT22;7745;48.708;9.026;2023-03-01T11:52:35;4.10;99.90
15288;DHT22;7745;48.708;9.026;2023-03-01T11:56:09;4.90;99.90
15288;DHT22;7745;48.708;9.026;2023-03-01T11:59:26;4.40;99.90
15288;DHT22;7745;48.708;9.026;2023-03-01T12:02:48;4.80;99.90
15288;DHT22;7745;48.708;9.026;2023-03-01T12:06:10;4.30;99.90
15288;DHT22;7745;48.708;9.026;2023-03-01T12:12:47;4.50;99.90
15288;DHT22;7745;48.708;9.026;2023-03-01T12:15:53;5.00;99.90
15288;DHT22;7745;48.708;9.026;2023-03-01T12:24:49;4.60;99.90
15288;DHT22;7745;48.708;9.026;2023-03-01T12:57:43;5.40;99.90
15288;DHT22;7745;48.708;9.026;2023-03-01T13:53:46;6.20;99.90
15288;DHT22;7745;48.708;9.026;2023-03-01T13:56:37;6.20;99.90
15288;DHT22;7745;48.708;9.026;2023-03-01T13:59:19;6.50;99.90
15288;DHT22;7745;48.708;9.026;2023-03-01T14:06:01;6.50;99.90
15288;DHT22;7745;48.708;9.026;2023-03-01T14:08:59;6.30;99.90
15288;DHT22;7745;48.708;9.026;2023-03-01T14:21:42;6.30;99.90
15288;DHT22;7745;48.708;9.026;2023-03-01T14:24:46;6.40;99.90
15288;DHT22;7745;48.708;9.026;2023-03-01T14:27:54;6.40;99.90
15288;DHT22;7745;48.708;9.026;2023-03-01T15:08:01;6.10;99.90
15288;DHT22;7745;48.708;9.026;2023-03-01T15:14:41;6.10;99.90
15288;DHT22;7745;48.708;9.026;2023-03-01T15:20:49;6.10;99.90
15288;DHT22;7745;48.708;9.026;2023-03-01T15:23:59;6.40;99.90
15288;DHT22;7745;48.708;9.026;2023-03-01T15:34:20;6.00;99.90
15288;DHT22;7745;48.708;9.026;2023-03-01T15:37:03;6.00;99.90
15288;DHT22;7745;48.708;9.026;2023-03-01T15:39:57;6.10;99.90
15288;DHT22;7745;48.708;9.026;2023-03-01T15:42:38;6.60;99.90
15288;DHT22;7745;48.708;9.026;2023-03-01T15:45:31;6.20;99.90
15288;DHT22;7745;48.708;9.026;2023-03-01T15:55:19;5.80;99.90
15288;DHT22;7745;48.708;9.026;2023-03-01T15:58:22;5.70;99.90
15288;DHT22;7745;48.708;9.026;2023-03-01T16:22:12;5.40;99.90
15288;DHT22;7745;48.708;9.026;2023-03-01T16:25:04;5.40;99.90
15288;DHT22;7745;48.708;9.026;2023-03-01T16:30:50;5.30;99.90
15288;DHT22;7745;48.708;9.026;2023-03-01T16:33:32;5.70;99.90
15288;DHT22;7745;48.708;9.026;2023-03-01T16:36:07;5.50;99.90
15288;DHT22;7745;48.708;9.026;2023-03-01T16:38:36;5.20;99.90
15288;DHT22;7745;48.708;9.026;2023-03-01T16:41:29;5.20;99.90
15288;DHT22;7745;48.708;9.026;2023-03-01T16:48:11;4.80;99.90
15288;DHT22;7745;48.708;9.026;2023-03-01T16:50:41;5.00;99.90
15288;DHT22;7745;48.708;9.026;2023-03-01T17:06:11;4.70;99.90
15288;DHT22;7745;48.708;9.026;2023-03-01T17:13:27;4.50;99.90
15288;DHT22;7745;48.708;9.026;2023-03-01T17:15:19;4.50;99.90
15288;DHT22;7745;48.708;9.026;2023-03-01T17:18:18;4.40;99.90
15288;DHT22;7745;48.708;9.026;2023-03-01T17:20:56;4.40;99.90
15288;DHT22;7745;48.708;9.026;2023-03-01T17:38:25;3.80;99.90
15288;DHT22;7745;48.708;9.026;2023-03-01T17:41:10;3.90;99.90
15288;DHT22;7745;48.708;9.026;2023-03-01T17:58:33;3.50;99.90
15288;DHT22;7745;48.708;9.026;2023-03-01T18:04:28;3.20;99.90
15288;DHT22;7745;48.708;9.026;2023-03-01T18:06:59;3.40;99.90
15288;DHT22;7745;48.708;9.026;2023-03-01T18:09:27;3.20;99.90
15288;DHT22;7745;48.708;9.026;2023-03-01T18:11:59;3.20;99.90
15288;DHT22;7745;48.708;9.026;2023-03-01T18:21:31;3.00;99.90
15288;DHT22;7745;48.708;9.026;2023-03-01T18:24:38;3.10;99.90
15288;DHT22;7745;48.708;9.026;2023-03-01T18:30:59;2.80;99.90
15288;DHT22;7745;48.708;9.026;2023-03-01T19:24:15;2.20;99.90
15288;DHT22;7745;48.708;9.026;2023-03-01T22:07:59;1.80;99.90
15288;DHT22;7745;48.708;9.026;2023-03-01T22:10:25;1.80;99.90
15288;DHT22;7745;48.708;9.026;2023-03-01T22:12:56;1.80;99.90
15288;DHT22;7745;48.708;9.026;2023-03-01T22:15:25;1.80;99.90
15288;DHT22;7745;48.708;9.026;2023-03-01T22:18:01;1.70;99.90
15288;DHT22;7745;48.708;9.026;2023-03-01T22:20:31;1.70;99.90
